Time;durP1;ratioP1;P1;durP2;ratioP2;P2;SDS_P1;SDS_P2;PMS_P1;PMS_P2;Temp;Humidity;BMP_temperature;BMP_pressure;BME280_temperature;BME280_humidity;BME280_pressure;Samples;Min_cycle;Max_cycle;Signal;HPM_P1;HPM_P2
2022/01/04 00:00:21;;;;;;;3.42;0.60;;;6.90;99.90;;;;;;4438824;32;20088;-64
2022/01/04 00:02:46;;;;;;;6.57;0.57;;;6.90;99.90;;;;;;4440519;32;20082;-64
2022/01/04 00:05:12;;;;;;;0.55;0.55;;;6.80;99.90;;;;;;4445597;32;20109;-67
2022/01/04 00:07:38;;;;;;;0.30;0.30;;;6.90;99.90;;;;;;4447753;32;20065;-65
2022/01/04 00:10:05;;;;;;;2.92;1.37;;;6.90;99.90;;;;;;4445131;32;20087;-65
2022/01/04 00:13:31;;;;;;;0.30;0.30;;;7.00;99.90;;;;;;4446081;32;20077;-65
2022/01/04 00:15:16;;;;;;;0.20;0.20;;;7.10;99.90;;;;;;4440294;32;20073;-65
2022/01/04 00:17:41;;;;;;;18.73;0.40;;;7.00;99.90;;;;;;4445605;32;20066;-65
2022/01/04 00:20:07;;;;;;;0.25;0.25;;;7.00;99.90;;;;;;4439483;32;20064;-64
2022/01/04 00:22:33;;;;;;;0.20;0.20;;;7.00;99.90;;;;;;4444655;32;20078;-66
2022/01/04 00:24:59;;;;;;;6.25;0.77;;;6.90;99.90;;;;;;4443457;32;20073;-65
2022/01/04 00:27:24;;;;;;;0.20;0.20;;;6.90;99.90;;;;;;4443167;32;20077;-65
2022/01/04 00:29:50;;;;;;;0.30;0.30;;;6.90;99.90;;;;;;4443364;32;20065;-64
2022/01/04 00:32:16;;;;;;;0.25;0.25;;;6.90;99.90;;;;;;4443907;32;20529;-66
2022/01/04 00:34:42;;;;;;;2.20;1.23;;;6.90;99.90;;;;;;4445047;32;20561;-65
2022/01/04 00:37:08;;;;;;;0.30;0.30;;;6.80;99.90;;;;;;4443250;32;20513;-65
2022/01/04 00:39:33;;;;;;;0.30;0.30;;;6.80;99.90;;;;;;4443805;32;20077;-65
2022/01/04 00:41:59;;;;;;;0.30;0.30;;;6.90;99.90;;;;;;4444659;32;20058;-65
2022/01/04 00:44:25;;;;;;;0.35;0.32;;;6.90;99.90;;;;;;4443569;32;20170;-65
2022/01/04 00:46:51;;;;;;;0.47;0.40;;;6.90;99.90;;;;;;4436946;32;20132;-65
2022/01/04 00:49:17;;;;;;;0.30;0.30;;;6.90;99.90;;;;;;4444266;32;20393;-66
2022/01/04 00:51:49;;;;;;;0.52;0.52;;;6.90;99.90;;;;;;4442772;32;20097;-65
2022/01/04 00:54:16;;;;;;;0.30;0.30;;;6.90;99.90;;;;;;4443695;32;20085;-65
2022/01/04 00:56:43;;;;;;;1.12;0.62;;;7.00;99.90;;;;;;4440712;32;20093;-64
2022/01/04 00:59:09;;;;;;;0.40;0.40;;;6.90;99.90;;;;;;4442464;32;20080;-65
2022/01/04 01:01:35;;;;;;;0.30;0.30;;;6.90;99.90;;;;;;4444260;32;20138;-65
2022/01/04 01:04:01;;;;;;;0.40;0.40;;;7.00;99.90;;;;;;4444361;32;20435;-64
2022/01/04 01:06:26;;;;;;;0.30;0.30;;;7.00;99.90;;;;;;4444551;32;20112;-66
2022/01/04 01:08:52;;;;;;;0.20;0.20;;;7.00;99.90;;;;;;4444243;32;20072;-65
2022/01/04 01:11:18;;;;;;;0.30;0.30;;;7.00;99.90;;;;;;4446777;32;20402;-66
2022/01/04 01:13:44;;;;;;;0.25;0.25;;;6.90;99.90;;;;;;4442063;32;20084;-65
2022/01/04 01:16:09;;;;;;;0.20;0.20;;;6.90;99.90;;;;;;4434551;32;20092;-65
2022/01/04 01:18:36;;;;;;;0.20;0.20;;;6.90;99.90;;;;;;4443325;32;20089;-65
2022/01/04 01:21:03;;;;;;;13.07;0.43;;;6.90;99.90;;;;;;4442691;32;20061;-65
2022/01/04 01:23:29;;;;;;;0.55;0.55;;;7.00;99.90;;;;;;4441017;32;20544;-65
2022/01/04 01:25:56;;;;;;;0.25;0.25;;;7.00;99.90;;;;;;4444712;32;20365;-65
2022/01/04 01:28:21;;;;;;;0.20;0.20;;;7.00;99.90;;;;;;4444761;32;20446;-66
2022/01/04 01:30:47;;;;;;;0.43;0.43;;;7.00;99.90;;;;;;4440822;32;20069;-65
2022/01/04 01:33:13;;;;;;;0.20;0.20;;;7.00;99.90;;;;;;4444048;32;20144;-65
2022/01/04 01:35:39;;;;;;;0.28;0.28;;;7.00;99.90;;;;;;4445459;32;20509;-64
2022/01/04 01:38:05;;;;;;;0.93;0.82;;;7.00;99.90;;;;;;4443134;32;20134;-65
2022/01/04 01:40:32;;;;;;;0.50;0.50;;;6.90;99.90;;;;;;4444252;32;20508;-64
2022/01/04 01:42:58;;;;;;;0.45;0.45;;;6.90;99.90;;;;;;4443572;32;20097;-65
2022/01/04 01:45:25;;;;;;;0.40;0.40;;;6.90;99.90;;;;;;4443988;32;20089;-65
2022/01/04 01:47:51;;;;;;;0.20;0.20;;;7.00;99.90;;;;;;4437828;32;20077;-65
2022/01/04 01:50:19;;;;;;;0.22;0.22;;;7.00;99.90;;;;;;4443367;32;20073;-66
2022/01/04 01:52:47;;;;;;;0.20;0.20;;;7.00;99.90;;;;;;4442134;32;20100;-65
2022/01/04 01:55:15;;;;;;;0.30;0.30;;;7.00;99.90;;;;;;4442994;32;20556;-63
2022/01/04 01:57:41;;;;;;;0.30;0.30;;;7.10;99.90;;;;;;4442352;32;20223;-64
2022/01/04 02:00:09;;;;;;;1.95;0.82;;;7.10;99.90;;;;;;4446838;32;20088;-66
2022/01/04 02:02:35;;;;;;;0.20;0.20;;;7.10;99.90;;;;;;4445156;32;20069;-65
2022/01/04 02:05:01;;;;;;;0.32;0.32;;;7.10;99.90;;;;;;4444699;32;20119;-65
2022/01/04 02:07:27;;;;;;;0.30;0.30;;;7.00;99.90;;;;;;4443673;32;20520;-63
2022/01/04 02:10:02;;;;;;;0.30;0.30;;;7.00;99.90;;;;;;4443588;32;20529;-65
2022/01/04 02:12:30;;;;;;;0.20;0.20;;;7.10;99.90;;;;;;4442379;32;20065;-65
2022/01/04 02:14:56;;;;;;;0.47;0.47;;;7.10;99.90;;;;;;4440561;32;20127;-65
2022/01/04 02:17:22;;;;;;;0.30;0.30;;;7.10;99.90;;;;;;4442017;32;20418;-65
2022/01/04 02:19:48;;;;;;;0.30;0.30;;;7.10;99.90;;;;;;4446462;32;20123;-66
2022/01/04 02:22:13;;;;;;;0.32;0.32;;;7.20;99.90;;;;;;4442515;32;20120;-65
2022/01/04 02:24:39;;;;;;;0.37;0.37;;;7.10;99.90;;;;;;4443628;32;20541;-65
2022/01/04 02:27:04;;;;;;;0.30;0.30;;;7.10;99.90;;;;;;4441247;32;20112;-64
2022/01/04 02:29:30;;;;;;;0.20;0.20;;;7.10;99.90;;;;;;4444832;32;20064;-65
2022/01/04 02:31:55;;;;;;;0.32;0.32;;;7.10;99.90;;;;;;4442989;32;20073;-65
2022/01/04 02:34:21;;;;;;;0.30;0.30;;;7.10;99.90;;;;;;4446479;32;20081;-65
2022/01/04 02:36:46;;;;;;;0.37;0.37;;;7.20;99.90;;;;;;4442872;32;20073;-66
2022/01/04 02:39:12;;;;;;;0.20;0.20;;;7.20;99.90;;;;;;4447194;32;20534;-65
2022/01/04 02:41:37;;;;;;;0.37;0.37;;;7.20;99.90;;;;;;4440853;32;20100;-64
2022/01/04 02:44:04;;;;;;;0.68;0.68;;;7.20;99.90;;;;;;4442859;32;20187;-66
2022/01/04 02:46:30;;;;;;;1.25;0.40;;;7.20;99.90;;;;;;4442070;32;20065;-65
2022/01/04 02:48:55;;;;;;;0.50;0.50;;;7.20;99.90;;;;;;4440481;32;20101;-65
2022/01/04 02:51:22;;;;;;;0.40;0.40;;;7.20;99.90;;;;;;4440737;32;20065;-66
2022/01/04 02:53:48;;;;;;;0.28;0.28;;;7.20;99.90;;;;;;4442967;32;20081;-66
2022/01/04 02:56:14;;;;;;;0.22;0.22;;;7.20;99.90;;;;;;4442457;32;20098;-64
2022/01/04 02:58:40;;;;;;;0.28;0.28;;;7.10;99.90;;;;;;4437864;32;20070;-65
2022/01/04 03:01:06;;;;;;;0.30;0.30;;;7.10;99.90;;;;;;4441453;32;20073;-65
2022/01/04 03:03:34;;;;;;;0.30;0.30;;;7.10;99.90;;;;;;4441784;32;20556;-65
2022/01/04 03:06:00;;;;;;;1.12;0.45;;;7.10;99.90;;;;;;4441744;32;20120;-65
2022/01/04 03:08:25;;;;;;;0.20;0.20;;;7.10;99.90;;;;;;4442816;32;20496;-66
2022/01/04 03:10:51;;;;;;;0.30;0.30;;;7.10;99.90;;;;;;4440628;32;20077;-65
2022/01/04 03:13:17;;;;;;;0.30;0.30;;;7.10;99.90;;;;;;4445611;32;20081;-65
2022/01/04 03:15:45;;;;;;;0.70;0.70;;;7.10;99.90;;;;;;4443741;32;20103;-65
2022/01/04 03:18:10;;;;;;;0.30;0.30;;;7.10;99.90;;;;;;4442353;32;20241;-64
2022/01/04 03:20:36;;;;;;;0.30;0.30;;;7.00;99.90;;;;;;4441638;32;20093;-66
2022/01/04 03:23:02;;;;;;;0.30;0.30;;;7.00;99.90;;;;;;4443490;32;20123;-65
2022/01/04 03:25:28;;;;;;;0.28;0.28;;;7.00;99.90;;;;;;4437297;32;20080;-65
2022/01/04 03:27:53;;;;;;;0.30;0.30;;;7.00;99.90;;;;;;4442090;32;20130;-65
2022/01/04 03:30:19;;;;;;;0.30;0.30;;;7.10;99.90;;;;;;4441883;32;20171;-64
2022/01/04 03:32:45;;;;;;;0.30;0.30;;;7.00;99.90;;;;;;4439916;32;20058;-64
2022/01/04 03:35:11;;;;;;;0.30;0.30;;;7.10;99.90;;;;;;4443023;32;20081;-65
2022/01/04 03:37:37;;;;;;;0.40;0.40;;;7.10;99.90;;;;;;4436176;32;20069;-64
2022/01/04 03:40:05;;;;;;;0.20;0.20;;;7.10;99.90;;;;;;4433782;32;20089;-64
2022/01/04 03:42:30;;;;;;;0.40;0.40;;;7.10;99.90;;;;;;4445259;32;20126;-64
2022/01/04 03:44:56;;;;;;;0.20;0.20;;;7.10;99.90;;;;;;4444866;32;20460;-64
2022/01/04 03:47:21;;;;;;;0.30;0.30;;;7.10;99.90;;;;;;4443897;32;20062;-64
2022/01/04 03:49:47;;;;;;;0.62;0.60;;;7.00;99.90;;;;;;4445307;32;20065;-64
2022/01/04 03:52:13;;;;;;;0.30;0.30;;;7.00;99.90;;;;;;4443676;32;20434;-64
2022/01/04 03:54:38;;;;;;;0.40;0.40;;;7.10;99.90;;;;;;4446374;32;20076;-64
2022/01/04 03:57:04;;;;;;;0.20;0.20;;;7.10;99.90;;;;;;4443750;32;20053;-65
2022/01/04 03:59:29;;;;;;;0.28;0.28;;;7.20;99.90;;;;;;4444700;32;20069;-65
2022/01/04 04:01:55;;;;;;;0.30;0.30;;;7.20;99.90;;;;;;4447744;32;20360;-64
2022/01/04 04:04:21;;;;;;;0.30;0.30;;;7.20;99.90;;;;;;4445999;32;20076;-64
2022/01/04 04:06:47;;;;;;;0.60;0.60;;;7.20;99.90;;;;;;4444381;32;20153;-64
2022/01/04 04:09:12;;;;;;;0.40;0.40;;;7.20;99.90;;;;;;4445369;32;20078;-65
2022/01/04 04:11:38;;;;;;;0.80;0.52;;;7.20;99.90;;;;;;4438174;32;20065;-65
2022/01/04 04:14:03;;;;;;;0.40;0.40;;;7.10;99.90;;;;;;4438866;32;20133;-65
2022/01/04 04:16:31;;;;;;;0.30;0.30;;;7.20;99.90;;;;;;4444918;32;20115;-65
2022/01/04 04:18:57;;;;;;;0.30;0.30;;;7.20;99.90;;;;;;4446772;32;20069;-65
2022/01/04 04:21:22;;;;;;;0.30;0.30;;;7.10;99.90;;;;;;4444362;32;20097;-65
2022/01/04 04:23:48;;;;;;;0.30;0.30;;;7.10;99.90;;;;;;4444639;32;20131;-65
2022/01/04 04:26:13;;;;;;;0.50;0.50;;;7.10;99.90;;;;;;4445026;32;20556;-65
2022/01/04 04:28:39;;;;;;;1.12;1.00;;;7.20;99.90;;;;;;4441872;32;20087;-64
2022/01/04 04:31:05;;;;;;;0.95;0.40;;;7.10;99.90;;;;;;4442827;32;20090;-65
2022/01/04 04:33:31;;;;;;;0.20;0.20;;;7.10;99.90;;;;;;4440418;32;101590;-65
2022/01/04 04:35:57;;;;;;;3.92;2.03;;;7.10;99.90;;;;;;4446991;32;20482;-65
2022/01/04 04:38:22;;;;;;;0.32;0.32;;;7.20;99.90;;;;;;4445790;32;20057;-65
2022/01/04 04:40:47;;;;;;;0.20;0.20;;;7.20;99.90;;;;;;4446282;32;20065;-65
2022/01/04 04:43:13;;;;;;;0.37;0.37;;;7.10;99.90;;;;;;4440474;32;20532;-64
2022/01/04 04:45:38;;;;;;;0.30;0.30;;;7.10;99.90;;;;;;4444522;32;20086;-65
2022/01/04 04:48:04;;;;;;;0.20;0.20;;;7.10;99.90;;;;;;4444214;32;20391;-65
2022/01/04 04:50:31;;;;;;;1.40;0.82;;;7.10;99.90;;;;;;4446614;32;20179;-65
2022/01/04 04:52:57;;;;;;;0.20;0.20;;;7.20;99.90;;;;;;4448263;32;20081;-65
2022/01/04 04:55:23;;;;;;;0.30;0.30;;;7.10;99.90;;;;;;4444422;32;20699;-64
2022/01/04 04:57:48;;;;;;;0.20;0.20;;;7.10;99.90;;;;;;4444597;32;20073;-64
2022/01/04 05:00:14;;;;;;;0.20;0.20;;;7.00;99.90;;;;;;4443511;32;20122;-64
2022/01/04 05:02:41;;;;;;;18.23;0.95;;;7.00;99.90;;;;;;4444733;32;20524;-64
2022/01/04 05:05:07;;;;;;;0.30;0.30;;;7.10;99.90;;;;;;4444946;32;20544;-64
2022/01/04 05:07:34;;;;;;;0.35;0.35;;;7.10;99.90;;;;;;4445049;32;20057;-64
2022/01/04 05:10:00;;;;;;;0.30;0.30;;;7.10;99.90;;;;;;4443080;32;20069;-64
2022/01/04 05:12:25;;;;;;;0.68;0.68;;;7.20;99.90;;;;;;4448990;32;20503;-65
2022/01/04 05:14:51;;;;;;;0.22;0.22;;;7.10;99.90;;;;;;4441714;32;20090;-65
2022/01/04 05:17:16;;;;;;;0.20;0.20;;;7.00;99.90;;;;;;4441519;32;20061;-65
2022/01/04 05:19:42;;;;;;;0.35;0.35;;;7.00;99.90;;;;;;4444191;32;20124;-65
2022/01/04 05:22:08;;;;;;;0.50;0.50;;;7.00;99.90;;;;;;4435804;32;20088;-65
2022/01/04 05:24:36;;;;;;;0.30;0.30;;;7.00;99.90;;;;;;4439508;32;20081;-65
2022/01/04 05:27:02;;;;;;;1.52;1.10;;;6.90;99.90;;;;;;4441824;32;20106;-65
2022/01/04 05:29:28;;;;;;;0.32;0.32;;;6.70;99.90;;;;;;4443311;32;20092;-65
2022/01/04 05:31:53;;;;;;;0.30;0.30;;;6.70;99.90;;;;;;4440936;32;20114;-65
2022/01/04 05:34:19;;;;;;;0.20;0.20;;;6.70;99.90;;;;;;4444332;32;20065;-65
2022/01/04 05:36:44;;;;;;;0.30;0.30;;;6.80;99.90;;;;;;4443211;32;20065;-65
2022/01/04 05:39:10;;;;;;;0.32;0.32;;;6.80;99.90;;;;;;4442783;32;20574;-65
2022/01/04 05:41:35;;;;;;;0.82;0.82;;;6.80;99.90;;;;;;4445270;32;20081;-65
2022/01/04 05:44:01;;;;;;;0.40;0.40;;;6.80;99.90;;;;;;4443581;32;20068;-63
2022/01/04 05:46:27;;;;;;;0.37;0.37;;;6.80;99.90;;;;;;4441290;32;20085;-64
2022/01/04 05:48:52;;;;;;;0.30;0.30;;;6.70;99.90;;;;;;4441441;32;20572;-65
2022/01/04 05:51:18;;;;;;;0.30;0.30;;;6.70;99.90;;;;;;4443392;32;20065;-64
2022/01/04 05:53:44;;;;;;;0.37;0.37;;;6.70;99.90;;;;;;4442943;32;20094;-64
2022/01/04 05:56:09;;;;;;;0.20;0.20;;;6.70;99.90;;;;;;4422514;32;20132;-64
2022/01/04 05:58:35;;;;;;;0.40;0.40;;;6.60;99.90;;;;;;4442164;32;20084;-64
2022/01/04 06:01:01;;;;;;;0.32;0.32;;;6.60;99.90;;;;;;4439064;32;20556;-64
2022/01/04 06:03:26;;;;;;;1.10;0.43;;;6.60;99.90;;;;;;4436535;32;20566;-65
2022/01/04 06:05:53;;;;;;;0.45;0.45;;;6.50;99.90;;;;;;4440041;32;20109;-65
2022/01/04 06:08:20;;;;;;;1.37;0.50;;;6.50;99.90;;;;;;4441483;32;20110;-65
2022/01/04 06:10:50;;;;;;;0.30;0.30;;;6.60;99.90;;;;;;4443232;32;20153;-64
2022/01/04 06:15:18;;;;;;;1.30;1.07;;;6.50;99.90;;;;;;4439265;32;20089;-64
2022/01/04 06:16:04;;;;;;;0.62;0.50;;;6.60;99.90;;;;;;4434018;32;20183;-65
2022/01/04 06:18:29;;;;;;;0.30;0.30;;;6.70;99.90;;;;;;4423711;32;20114;-65
2022/01/04 06:20:56;;;;;;;0.30;0.30;;;6.60;99.90;;;;;;4441447;32;20076;-65
2022/01/04 06:23:21;;;;;;;0.30;0.30;;;6.70;99.90;;;;;;4442795;32;20072;-65
2022/01/04 06:25:47;;;;;;;0.37;0.37;;;6.80;99.90;;;;;;4439076;32;20542;-65
2022/01/04 06:28:13;;;;;;;0.30;0.30;;;6.90;99.90;;;;;;4425227;32;20092;-65
2022/01/04 06:30:39;;;;;;;0.32;0.32;;;6.90;99.90;;;;;;4424925;32;20512;-64
2022/01/04 06:33:04;;;;;;;0.40;0.40;;;6.90;99.90;;;;;;4423603;32;20065;-64
2022/01/04 06:35:33;;;;;;;1.10;1.00;;;7.00;99.90;;;;;;4435409;32;20164;-65
2022/01/04 06:37:59;;;;;;;0.43;0.43;;;6.90;99.90;;;;;;4433951;32;20085;-64
2022/01/04 06:40:25;;;;;;;1.45;0.90;;;6.90;99.90;;;;;;4437911;32;20433;-65
2022/01/04 06:42:51;;;;;;;0.30;0.30;;;7.00;99.90;;;;;;4435002;32;20109;-69
2022/01/04 06:45:16;;;;;;;0.50;0.50;;;7.10;99.90;;;;;;4426879;32;20118;-65
2022/01/04 06:47:42;;;;;;;0.30;0.30;;;7.00;99.90;;;;;;4431230;32;20094;-67
2022/01/04 06:50:08;;;;;;;0.40;0.40;;;6.90;99.90;;;;;;4427951;32;20081;-65
2022/01/04 06:52:34;;;;;;;0.60;0.60;;;6.80;99.90;;;;;;4427060;32;20100;-65
2022/01/04 06:54:59;;;;;;;0.40;0.40;;;6.70;99.90;;;;;;4426563;32;20111;-63
2022/01/04 06:57:26;;;;;;;0.40;0.40;;;6.80;99.90;;;;;;4426740;32;20185;-68
2022/01/04 06:59:51;;;;;;;0.30;0.30;;;6.90;99.90;;;;;;4423170;32;21265;-63
2022/01/04 07:02:17;;;;;;;0.50;0.50;;;6.90;99.90;;;;;;4424312;32;20574;-65
2022/01/04 07:04:43;;;;;;;0.43;0.43;;;7.00;99.90;;;;;;4427962;32;20104;-64
2022/01/04 07:07:09;;;;;;;0.40;0.40;;;7.00;99.90;;;;;;4427622;32;20092;-64
2022/01/04 07:09:34;;;;;;;0.30;0.30;;;7.00;99.90;;;;;;4423370;32;20621;-64
2022/01/04 07:12:00;;;;;;;2.55;0.98;;;7.20;99.90;;;;;;4424684;32;20134;-64
2022/01/04 07:14:25;;;;;;;0.32;0.32;;;7.20;99.90;;;;;;4426066;32;20172;-64
2022/01/04 07:16:51;;;;;;;0.65;0.65;;;7.20;99.90;;;;;;4419039;32;20549;-65
2022/01/04 07:19:17;;;;;;;0.50;0.50;;;7.20;99.90;;;;;;4415821;32;20093;-65
2022/01/04 07:21:43;;;;;;;0.50;0.50;;;7.20;99.90;;;;;;4418848;32;20069;-65
2022/01/04 07:24:09;;;;;;;0.25;0.25;;;7.30;99.90;;;;;;4418050;32;20209;-65
2022/01/04 07:26:35;;;;;;;0.43;0.43;;;7.30;99.90;;;;;;4428251;32;20189;-65
2022/01/04 07:29:00;;;;;;;0.68;0.68;;;7.30;99.90;;;;;;4422212;32;20154;-65
2022/01/04 07:31:26;;;;;;;0.20;0.20;;;7.40;99.90;;;;;;4424552;32;20064;-65
2022/01/04 07:33:51;;;;;;;0.55;0.55;;;7.40;99.90;;;;;;4422517;32;20101;-65
2022/01/04 07:36:18;;;;;;;0.47;0.47;;;7.40;99.90;;;;;;4422258;32;20736;-65
2022/01/04 07:38:43;;;;;;;0.73;0.73;;;7.50;99.90;;;;;;4423141;32;20098;-65
2022/01/04 07:41:10;;;;;;;0.40;0.40;;;7.50;99.90;;;;;;4426598;32;20089;-65
2022/01/04 07:43:36;;;;;;;2.12;0.75;;;7.50;99.90;;;;;;4421139;32;20109;-65
2022/01/04 07:46:02;;;;;;;0.95;0.80;;;7.50;99.90;;;;;;4426367;32;20298;-65
2022/01/04 07:48:28;;;;;;;0.30;0.30;;;7.50;99.90;;;;;;4424605;32;20144;-66
2022/01/04 07:50:55;;;;;;;1.10;0.50;;;7.50;99.90;;;;;;4426482;32;20472;-65
2022/01/04 07:53:22;;;;;;;0.68;0.68;;;7.50;99.90;;;;;;4424128;32;20663;-64
2022/01/04 07:55:48;;;;;;;0.40;0.40;;;7.60;99.90;;;;;;4426120;32;20191;-64
2022/01/04 07:58:14;;;;;;;0.85;0.35;;;7.60;99.90;;;;;;4425996;32;20065;-64
2022/01/04 08:00:40;;;;;;;0.30;0.30;;;7.60;99.90;;;;;;4420044;32;20081;-64
2022/01/04 08:03:07;;;;;;;0.30;0.30;;;7.60;99.90;;;;;;4424108;32;20188;-64
2022/01/04 08:05:33;;;;;;;0.30;0.30;;;7.60;99.90;;;;;;4412563;32;20132;-64
2022/01/04 08:07:58;;;;;;;0.50;0.50;;;7.60;99.90;;;;;;4424574;32;20089;-63
2022/01/04 08:10:24;;;;;;;0.62;0.60;;;7.60;99.90;;;;;;4418787;32;20155;-64
2022/01/04 08:12:49;;;;;;;6.55;0.88;;;7.70;99.90;;;;;;4421783;32;20470;-64
2022/01/04 08:15:16;;;;;;;0.45;0.40;;;7.70;99.90;;;;;;4423740;32;20100;-63
2022/01/04 08:17:41;;;;;;;0.50;0.50;;;7.70;99.90;;;;;;4420608;32;20098;-63
2022/01/04 08:20:08;;;;;;;0.37;0.37;;;7.70;99.90;;;;;;4423073;32;20072;-61
2022/01/04 08:22:35;;;;;;;0.40;0.40;;;7.80;99.90;;;;;;4422657;32;20607;-64
2022/01/04 08:25:03;;;;;;;0.30;0.30;;;7.80;99.90;;;;;;4425244;32;20126;-64
2022/01/04 08:27:29;;;;;;;0.43;0.43;;;7.70;99.90;;;;;;4422538;32;20149;-65
2022/01/04 08:29:55;;;;;;;1.00;0.57;;;7.80;99.90;;;;;;4417282;32;21831;-64
2022/01/04 08:32:21;;;;;;;0.40;0.40;;;7.70;99.90;;;;;;4414472;32;21207;-64
2022/01/04 08:34:48;;;;;;;0.30;0.30;;;7.70;99.90;;;;;;4415878;32;20130;-64
2022/01/04 08:37:13;;;;;;;0.45;0.45;;;7.70;99.90;;;;;;4423648;32;20419;-64
2022/01/04 08:39:39;;;;;;;0.50;0.50;;;7.70;99.90;;;;;;4421902;32;20080;-65
2022/01/04 08:42:05;;;;;;;0.30;0.30;;;7.70;99.90;;;;;;4419801;32;20163;-65
2022/01/04 08:44:31;;;;;;;0.35;0.35;;;7.70;99.90;;;;;;4420881;32;20177;-65
2022/01/04 08:46:57;;;;;;;0.77;0.50;;;7.80;99.90;;;;;;4419119;32;20105;-64
2022/01/04 08:49:23;;;;;;;1.45;0.50;;;7.90;99.90;;;;;;4420217;32;20085;-64
2022/01/04 08:51:48;;;;;;;1.85;0.62;;;7.90;99.90;;;;;;4413892;32;20121;-65
2022/01/04 08:54:14;;;;;;;0.20;0.20;;;7.90;99.90;;;;;;4411083;32;20081;-65
2022/01/04 08:56:40;;;;;;;0.57;0.57;;;7.90;99.90;;;;;;4416932;32;20263;-65
2022/01/04 08:59:08;;;;;;;0.57;0.57;;;7.90;99.90;;;;;;4413898;32;20658;-65
2022/01/04 09:01:34;;;;;;;0.28;0.28;;;7.90;99.90;;;;;;4413946;32;20509;-65
2022/01/04 09:04:01;;;;;;;0.37;0.37;;;7.80;99.90;;;;;;4414085;32;21360;-66
2022/01/04 09:06:27;;;;;;;0.37;0.37;;;7.90;99.90;;;;;;4413269;32;20176;-65
2022/01/04 09:08:55;;;;;;;0.30;0.30;;;7.90;99.90;;;;;;4408523;32;20829;-65
2022/01/04 09:11:21;;;;;;;0.73;0.73;;;8.00;99.90;;;;;;4414981;32;20093;-65
2022/01/04 09:13:49;;;;;;;3.75;0.70;;;7.90;99.90;;;;;;4412588;32;20157;-65
2022/01/04 09:18:46;;;;;;;0.30;0.30;;;7.90;99.90;;;;;;4415560;32;20117;-65
2022/01/04 09:21:16;;;;;;;0.35;0.35;;;7.90;99.90;;;;;;4413967;32;20159;-65
2022/01/04 09:23:43;;;;;;;0.80;0.75;;;8.00;99.90;;;;;;4410257;32;21269;-65
2022/01/04 09:26:09;;;;;;;0.30;0.30;;;8.00;99.90;;;;;;4413991;32;20504;-65
2022/01/04 09:28:35;;;;;;;0.20;0.20;;;8.00;99.90;;;;;;4412031;32;20517;-64
2022/01/04 09:31:01;;;;;;;0.40;0.40;;;8.00;99.90;;;;;;4412459;32;20456;-65
2022/01/04 09:33:27;;;;;;;0.50;0.50;;;8.10;99.90;;;;;;4412156;32;20084;-65
2022/01/04 09:35:53;;;;;;;0.65;0.60;;;8.00;99.90;;;;;;4404722;32;20647;-64
2022/01/04 09:38:20;;;;;;;0.57;0.57;;;8.00;99.90;;;;;;4411196;32;20114;-64
2022/01/04 09:40:46;;;;;;;0.30;0.30;;;7.90;99.90;;;;;;4414887;32;20073;-64
2022/01/04 09:43:12;;;;;;;0.40;0.40;;;7.90;99.90;;;;;;4412984;32;20387;-65
2022/01/04 09:45:38;;;;;;;0.52;0.52;;;7.90;99.90;;;;;;4413881;32;20442;-64
2022/01/04 09:48:04;;;;;;;0.30;0.30;;;8.00;99.90;;;;;;4421997;32;20274;-66
2022/01/04 09:50:33;;;;;;;0.30;0.30;;;8.00;99.90;;;;;;4420068;32;20432;-65
2022/01/04 09:52:59;;;;;;;0.30;0.30;;;8.00;99.90;;;;;;4410515;32;20070;-65
2022/01/04 09:55:25;;;;;;;0.35;0.35;;;8.00;99.90;;;;;;4415254;32;20517;-65
2022/01/04 09:57:50;;;;;;;0.40;0.40;;;8.10;99.90;;;;;;4412670;32;20189;-65
2022/01/04 10:00:17;;;;;;;0.43;0.43;;;8.00;99.90;;;;;;4422067;32;20121;-64
2022/01/04 10:02:45;;;;;;;0.43;0.43;;;8.10;99.90;;;;;;4415749;32;20062;-63
2022/01/04 10:05:29;;;;;;;0.30;0.30;;;8.00;99.90;;;;;;4417380;32;20122;-64
2022/01/04 10:08:05;;;;;;;0.30;0.30;;;7.90;99.90;;;;;;4415509;32;20104;-64
2022/01/04 10:10:32;;;;;;;0.30;0.30;;;7.90;99.90;;;;;;4417218;32;20131;-64
2022/01/04 10:13:01;;;;;;;0.30;0.30;;;7.90;99.90;;;;;;4422650;32;20471;-64
2022/01/04 10:15:33;;;;;;;0.50;0.50;;;7.90;99.90;;;;;;4420372;32;20077;-64
2022/01/04 10:18:04;;;;;;;0.30;0.30;;;8.00;99.90;;;;;;4414677;32;20630;-63
2022/01/04 10:20:29;;;;;;;;;;;8.00;99.90;;;;;;4408359;32;20198;-63
2022/01/04 10:22:55;;;;;;;0.30;0.30;;;8.00;99.90;;;;;;4416082;32;19964;-64
2022/01/04 10:25:20;;;;;;;0.62;0.50;;;7.80;99.90;;;;;;4417094;32;20158;-64
2022/01/04 10:27:49;;;;;;;0.35;0.35;;;7.90;99.90;;;;;;4418856;32;20096;-65
2022/01/04 10:30:28;;;;;;;0.30;0.30;;;7.90;99.90;;;;;;4417964;32;20081;-65
2022/01/04 10:33:12;;;;;;;0.20;0.20;;;7.90;99.90;;;;;;4417936;32;20088;-65
2022/01/04 10:35:47;;;;;;;0.30;0.30;;;7.90;99.90;;;;;;4406530;32;20557;-65
2022/01/04 10:38:22;;;;;;;0.40;0.40;;;7.90;99.90;;;;;;4409061;32;20076;-65
2022/01/04 10:40:56;;;;;;;0.40;0.40;;;7.90;99.90;;;;;;4415085;32;20057;-65
2022/01/04 10:43:23;;;;;;;0.40;0.40;;;7.80;99.90;;;;;;4418581;32;20184;-65
2022/01/04 10:45:50;;;;;;;0.20;0.20;;;7.80;99.90;;;;;;4418315;32;20665;-65
2022/01/04 10:48:20;;;;;;;0.20;0.20;;;7.80;99.90;;;;;;4413702;32;20612;-66
2022/01/04 10:50:50;;;;;;;33.22;0.65;;;7.80;99.90;;;;;;4412018;32;20086;-65
2022/01/04 10:53:20;;;;;;;0.57;0.43;;;7.90;99.90;;;;;;4414657;32;20106;-65
2022/01/04 10:55:47;;;;;;;5.05;1.67;;;7.80;99.90;;;;;;4405737;32;20162;-65
2022/01/04 10:58:23;;;;;;;0.30;0.30;;;7.70;99.90;;;;;;4410816;32;20066;-65
2022/01/04 11:00:52;;;;;;;0.30;0.30;;;7.80;99.90;;;;;;4419536;32;20069;-65
2022/01/04 11:03:23;;;;;;;0.30;0.30;;;7.80;99.90;;;;;;4414284;32;20080;-66
2022/01/04 11:05:55;;;;;;;0.30;0.30;;;7.80;99.90;;;;;;4411642;32;20867;-66
2022/01/04 11:08:20;;;;;;;0.30;0.30;;;7.90;99.90;;;;;;4410226;32;20242;-66
2022/01/04 11:10:48;;;;;;;0.52;0.52;;;7.90;99.90;;;;;;4413214;32;20101;-66
2022/01/04 11:13:15;;;;;;;0.30;0.30;;;7.90;99.90;;;;;;4416455;32;20545;-66
2022/01/04 11:15:40;;;;;;;0.55;0.55;;;7.80;99.90;;;;;;4420228;32;20093;-66
2022/01/04 11:18:06;;;;;;;0.30;0.30;;;7.80;99.90;;;;;;4409574;32;20327;-66
2022/01/04 11:20:32;;;;;;;0.40;0.40;;;7.90;99.90;;;;;;4413498;32;21130;-66
2022/01/04 11:23:00;;;;;;;0.47;0.47;;;7.80;99.90;;;;;;4413319;32;20094;-66
2022/01/04 11:25:26;;;;;;;0.70;0.70;;;7.90;99.90;;;;;;4407452;32;20639;-65
2022/01/04 11:27:54;;;;;;;0.20;0.20;;;7.80;99.90;;;;;;4416303;32;20159;-65
2022/01/04 11:31:00;;;;;;;0.60;0.60;;;7.90;99.90;;;;;;4422877;32;20141;-65
2022/01/04 11:33:30;;;;;;;0.45;0.45;;;7.70;99.90;;;;;;4424443;32;20097;-65
2022/01/04 11:35:56;;;;;;;0.30;0.30;;;7.80;99.90;;;;;;4428659;32;20466;-66
2022/01/04 11:38:31;;;;;;;0.40;0.40;;;7.70;99.90;;;;;;4422056;32;20064;-66
2022/01/04 11:40:58;;;;;;;1.95;1.30;;;7.60;99.90;;;;;;4423911;32;20156;-66
2022/01/04 11:43:30;;;;;;;1.30;1.20;;;7.70;99.90;;;;;;4425084;32;20917;-67
2022/01/04 11:45:57;;;;;;;0.30;0.30;;;7.70;99.90;;;;;;4426906;32;20117;-66
2022/01/04 11:48:33;;;;;;;0.47;0.47;;;7.80;99.90;;;;;;4416412;32;20077;-67
2022/01/04 11:51:03;;;;;;;0.30;0.30;;;7.80;99.90;;;;;;4421416;32;20552;-65
2022/01/04 11:53:32;;;;;;;0.30;0.30;;;7.80;99.90;;;;;;4426926;32;20073;-65
2022/01/04 11:56:03;;;;;;;0.40;0.40;;;7.80;99.90;;;;;;4418866;32;20125;-64
2022/01/04 11:58:45;;;;;;;;;;;7.80;99.90;;;;;;4413786;32;20069;-65
2022/01/04 12:01:15;;;;;;;0.32;0.32;;;7.70;99.90;;;;;;4423596;32;19975;-64
2022/01/04 12:03:47;;;;;;;0.50;0.50;;;7.70;99.90;;;;;;4428883;32;20140;-64
2022/01/04 12:06:15;;;;;;;0.30;0.30;;;7.70;99.90;;;;;;4431161;32;20501;-66
2022/01/04 12:08:55;;;;;;;0.30;0.30;;;7.80;99.90;;;;;;4428459;32;20568;-65
2022/01/04 12:11:39;;;;;;;4.28;0.60;;;7.80;99.90;;;;;;4429986;32;20088;-65
2022/01/04 12:14:20;;;;;;;0.45;0.40;;;7.90;99.90;;;;;;4430443;32;20088;-65
2022/01/04 12:16:59;;;;;;;0.40;0.40;;;7.90;99.90;;;;;;4425950;32;20306;-65
2022/01/04 12:19:48;;;;;;;1.55;0.57;;;7.90;99.90;;;;;;4428683;32;20147;-65
2022/01/04 12:22:29;;;;;;;0.37;0.37;;;8.00;99.90;;;;;;4424013;32;20092;-65
2022/01/04 12:25:02;;;;;;;0.30;0.30;;;8.00;99.90;;;;;;4424707;32;20081;-66
2022/01/04 12:27:27;;;;;;;0.22;0.22;;;8.00;99.90;;;;;;4421109;32;20465;-66
2022/01/04 12:30:28;;;;;;;0.55;0.55;;;7.90;99.90;;;;;;4420625;32;20085;-65
2022/01/04 12:33:37;;;;;;;14.55;2.25;;;7.80;99.90;;;;;;4424245;32;20093;-65
2022/01/04 12:36:02;;;;;;;0.40;0.40;;;7.80;99.90;;;;;;4414821;32;20108;-65
2022/01/04 12:38:30;;;;;;;0.73;0.73;;;7.90;99.90;;;;;;4425642;32;20106;-65
2022/01/04 12:40:55;;;;;;;0.50;0.50;;;7.90;99.90;;;;;;4422816;32;20642;-65
2022/01/04 12:43:21;;;;;;;0.47;0.47;;;7.90;99.90;;;;;;4422940;32;20096;-65
2022/01/04 12:46:03;;;;;;;0.30;0.30;;;7.90;99.90;;;;;;4420694;32;20073;-64
2022/01/04 12:48:45;;;;;;;0.60;0.60;;;7.90;99.90;;;;;;4431804;32;20105;-66
2022/01/04 12:51:36;;;;;;;0.30;0.30;;;7.90;99.90;;;;;;4425129;32;20128;-66
2022/01/04 12:54:09;;;;;;;0.57;0.57;;;7.80;99.90;;;;;;4428774;32;20248;-67
2022/01/04 12:56:56;;;;;;;1.55;1.23;;;7.70;99.90;;;;;;4431180;32;20077;-66
2022/01/04 12:59:26;;;;;;;0.40;0.40;;;7.70;99.90;;;;;;4424655;32;20093;-67
2022/01/04 13:01:53;;;;;;;0.40;0.40;;;7.70;99.90;;;;;;4431614;32;20080;-67